Watertown International Airport
KART : rendu visible

Aérodrome :











RETROUVEZ-NOUS SUR...

 
LOGIN :

S'inscrire | Disclaimer

   EN    FR    IT 

 









Légende :    VFR   VFR Marginal   IFR   IFR Intensif   IFR Très Intensif
Visi : 
Plafond : 
>= 8 km
>= 3000ft
5 à 8 km
1000 à 3000 ft
1500m à 5 km
500 à 1000 ft
800 à 1500m
200 à 500 ft
< 800m
< 200 ft
Symboles :   Orages  Brouillard  Fortes neiges  Fortes précipitations  Vent > 20 kt






- Altitude de l'aérodrome : 325 ft
- Code IATA : ART


KART - Watertown International

DERNIER METAR :
  • 060456Z AUTO 00000KT 10SM FEW055 M01/M02 A3008 RMK AO2 SLP190 T10061017 401061006

METARs EXPIRÉS :
  • 060356Z AUTO 00000KT 6SM BR CLR 01/00 A3008 RMK AO2 SLP188 T00110000
  • 060256Z AUTO 00000KT 10SM SCT055 04/02 A3007 RMK AO2 SLP184 T00390017 51006

TAF KART
Valide du 06 à 03h jusqu'au 07 à 00h UTC


060259Z 0603/0624 VRB04KT P6SM SCT250
FM061500 27006KT P6SM FEW250
FM061800 24012KT P6SM SCT120 SCT250



MET'MAP, la Météo Aéronautique d'un coup d'oeil ! - Copyright ORBIFLY Décembre 2007 - Disclaimer

ORBIFLY MET'MAP TEAM :

Programmation & Développement : Alexandra Zaïnal
Sur une idée originale de : Baudouin d'Aumeries
Assistance à la programmation : Marc-Olivier Méhu
Soutien technique & logistique : Manuel Goepfert

Contact : metmap@orbifly.com




SOURCES & CREDITS :

   NOAA       Earth
Advisory